sensor_id;sensor_type;location;lat;lon;timestamp;temperature;humidity
3186;DHT22;1604;53.700;10.252;2023-12-28T00:00:06;6.40;99.90
3186;DHT22;1604;53.700;10.252;2023-12-28T00:03:10;6.50;99.90
3186;DHT22;1604;53.700;10.252;2023-12-28T00:06:12;6.50;99.90
3186;DHT22;1604;53.700;10.252;2023-12-28T00:09:14;6.50;99.90
3186;DHT22;1604;53.700;10.252;2023-12-28T00:12:16;6.60;99.90
3186;DHT22;1604;53.700;10.252;2023-12-28T00:15:18;6.60;99.90
3186;DHT22;1604;53.700;10.252;2023-12-28T00:18:21;6.60;99.90
3186;DHT22;1604;53.700;10.252;2023-12-28T00:21:23;6.60;99.90
3186;DHT22;1604;53.700;10.252;2023-12-28T00:24:25;6.60;99.90
3186;DHT22;1604;53.700;10.252;2023-12-28T00:27:27;6.60;99.90
3186;DHT22;1604;53.700;10.252;2023-12-28T00:30:29;6.70;99.90
3186;DHT22;1604;53.700;10.252;2023-12-28T00:33:34;6.70;99.90
3186;DHT22;1604;53.700;10.252;2023-12-28T00:36:36;6.80;99.90
3186;DHT22;1604;53.700;10.252;2023-12-28T00:39:38;6.90;99.90
3186;DHT22;1604;53.700;10.252;2023-12-28T00:42:41;6.90;99.90
3186;DHT22;1604;53.700;10.252;2023-12-28T00:45:43;7.00;99.90
3186;DHT22;1604;53.700;10.252;2023-12-28T00:48:46;7.10;99.90
3186;DHT22;1604;53.700;10.252;2023-12-28T00:51:48;7.10;99.90
3186;DHT22;1604;53.700;10.252;2023-12-28T00:54:50;7.10;99.90
3186;DHT22;1604;53.700;10.252;2023-12-28T00:57:52;7.20;99.90
3186;DHT22;1604;53.700;10.252;2023-12-28T01:00:54;7.20;99.90
3186;DHT22;1604;53.700;10.252;2023-12-28T01:03:58;7.20;99.90
3186;DHT22;1604;53.700;10.252;2023-12-28T01:07:00;7.20;99.90
3186;DHT22;1604;53.700;10.252;2023-12-28T01:10:06;7.20;99.90
3186;DHT22;1604;53.700;10.252;2023-12-28T01:13:08;7.20;99.90
3186;DHT22;1604;53.700;10.252;2023-12-28T01:16:12;7.20;99.90
3186;DHT22;1604;53.700;10.252;2023-12-28T01:19:15;7.20;99.90
3186;DHT22;1604;53.700;10.252;2023-12-28T01:22:17;7.30;99.90
3186;DHT22;1604;53.700;10.252;2023-12-28T01:25:19;7.30;99.90
3186;DHT22;1604;53.700;10.252;2023-12-28T01:28:21;7.30;99.90
3186;DHT22;1604;53.700;10.252;2023-12-28T01:31:23;7.30;99.90
3186;DHT22;1604;53.700;10.252;2023-12-28T01:34:27;7.30;99.90
3186;DHT22;1604;53.700;10.252;2023-12-28T01:37:29;7.30;99.90
3186;DHT22;1604;53.700;10.252;2023-12-28T01:40:31;7.30;99.90
3186;DHT22;1604;53.700;10.252;2023-12-28T01:43:33;7.30;99.90
3186;DHT22;1604;53.700;10.252;2023-12-28T01:46:35;7.40;99.90
3186;DHT22;1604;53.700;10.252;2023-12-28T01:49:39;7.30;99.90
3186;DHT22;1604;53.700;10.252;2023-12-28T01:52:41;7.40;99.90
3186;DHT22;1604;53.700;10.252;2023-12-28T01:55:43;7.40;99.90
3186;DHT22;1604;53.700;10.252;2023-12-28T01:58:46;7.40;99.90
3186;DHT22;1604;53.700;10.252;2023-12-28T02:01:49;7.50;99.90
3186;DHT22;1604;53.700;10.252;2023-12-28T02:04:53;7.50;99.90
3186;DHT22;1604;53.700;10.252;2023-12-28T02:07:55;7.50;99.90
3186;DHT22;1604;53.700;10.252;2023-12-28T02:10:57;7.50;99.90
3186;DHT22;1604;53.700;10.252;2023-12-28T02:14:00;7.50;99.90
3186;DHT22;1604;53.700;10.252;2023-12-28T02:17:06;7.60;99.90
3186;DHT22;1604;53.700;10.252;2023-12-28T02:20:11;7.60;99.90
3186;DHT22;1604;53.700;10.252;2023-12-28T02:23:15;7.60;99.90
3186;DHT22;1604;53.700;10.252;2023-12-28T02:26:19;7.60;99.90
3186;DHT22;1604;53.700;10.252;2023-12-28T02:29:21;7.70;99.90
3186;DHT22;1604;53.700;10.252;2023-12-28T02:32:32;7.70;99.90
3186;DHT22;1604;53.700;10.252;2023-12-28T02:35:40;7.70;99.90
3186;DHT22;1604;53.700;10.252;2023-12-28T02:38:44;7.80;99.90
3186;DHT22;1604;53.700;10.252;2023-12-28T02:41:48;7.90;99.90
3186;DHT22;1604;53.700;10.252;2023-12-28T02:44:51;7.90;99.90
3186;DHT22;1604;53.700;10.252;2023-12-28T02:47:53;7.90;99.90
3186;DHT22;1604;53.700;10.252;2023-12-28T02:50:54;7.90;99.90
3186;DHT22;1604;53.700;10.252;2023-12-28T02:53:56;7.90;99.90
3186;DHT22;1604;53.700;10.252;2023-12-28T02:57:00;8.00;99.90
3186;DHT22;1604;53.700;10.252;2023-12-28T03:00:02;8.00;99.90
3186;DHT22;1604;53.700;10.252;2023-12-28T03:03:04;8.00;99.90
3186;DHT22;1604;53.700;10.252;2023-12-28T03:06:07;8.00;99.90
3186;DHT22;1604;53.700;10.252;2023-12-28T03:09:09;8.00;99.90
3186;DHT22;1604;53.700;10.252;2023-12-28T03:12:12;8.00;99.90
3186;DHT22;1604;53.700;10.252;2023-12-28T03:15:14;8.00;99.90
3186;DHT22;1604;53.700;10.252;2023-12-28T03:18:16;8.00;99.90
3186;DHT22;1604;53.700;10.252;2023-12-28T03:21:18;7.90;99.90
3186;DHT22;1604;53.700;10.252;2023-12-28T03:24:20;7.90;99.90
3186;DHT22;1604;53.700;10.252;2023-12-28T03:27:23;7.90;99.90
3186;DHT22;1604;53.700;10.252;2023-12-28T03:30:25;8.00;99.90
3186;DHT22;1604;53.700;10.252;2023-12-28T03:33:27;7.90;99.90
3186;DHT22;1604;53.700;10.252;2023-12-28T03:36:29;8.00;99.90
3186;DHT22;1604;53.700;10.252;2023-12-28T03:39:31;7.90;99.90
3186;DHT22;1604;53.700;10.252;2023-12-28T03:42:35;7.90;99.90
3186;DHT22;1604;53.700;10.252;2023-12-28T03:45:37;7.90;99.90
3186;DHT22;1604;53.700;10.252;2023-12-28T03:48:39;8.00;99.90
3186;DHT22;1604;53.700;10.252;2023-12-28T03:51:41;8.00;99.90
3186;DHT22;1604;53.700;10.252;2023-12-28T03:54:43;8.00;99.90
3186;DHT22;1604;53.700;10.252;2023-12-28T03:57:47;8.10;99.90
3186;DHT22;1604;53.700;10.252;2023-12-28T04:00:49;8.00;99.90
3186;DHT22;1604;53.700;10.252;2023-12-28T04:03:51;8.00;99.90
3186;DHT22;1604;53.700;10.252;2023-12-28T04:06:53;8.00;99.90
3186;DHT22;1604;53.700;10.252;2023-12-28T04:09:55;8.00;99.90
3186;DHT22;1604;53.700;10.252;2023-12-28T04:13:00;8.00;99.90
3186;DHT22;1604;53.700;10.252;2023-12-28T04:16:02;8.00;99.90
3186;DHT22;1604;53.700;10.252;2023-12-28T04:19:05;7.90;99.90
3186;DHT22;1604;53.700;10.252;2023-12-28T04:22:07;7.90;99.90
3186;DHT22;1604;53.700;10.252;2023-12-28T04:25:09;7.90;99.90
3186;DHT22;1604;53.700;10.252;2023-12-28T04:28:12;8.00;99.90
3186;DHT22;1604;53.700;10.252;2023-12-28T04:31:14;8.00;99.90
3186;DHT22;1604;53.700;10.252;2023-12-28T04:34:16;8.00;99.90
3186;DHT22;1604;53.700;10.252;2023-12-28T04:37:19;7.90;99.90
3186;DHT22;1604;53.700;10.252;2023-12-28T04:40:21;7.90;99.90
3186;DHT22;1604;53.700;10.252;2023-12-28T04:43:24;7.90;99.90
3186;DHT22;1604;53.700;10.252;2023-12-28T04:46:26;7.90;99.90
3186;DHT22;1604;53.700;10.252;2023-12-28T04:49:28;7.80;99.90
3186;DHT22;1604;53.700;10.252;2023-12-28T04:52:30;7.80;99.90
3186;DHT22;1604;53.700;10.252;2023-12-28T04:55:32;7.80;99.90
3186;DHT22;1604;53.700;10.252;2023-12-28T04:58:35;7.80;99.90
3186;DHT22;1604;53.700;10.252;2023-12-28T05:01:41;7.80;99.90
3186;DHT22;1604;53.700;10.252;2023-12-28T05:04:43;7.80;99.90
3186;DHT22;1604;53.700;10.252;2023-12-28T05:07:45;7.80;99.90
3186;DHT22;1604;53.700;10.252;2023-12-28T05:10:46;7.90;99.90
3186;DHT22;1604;53.700;10.252;2023-12-28T05:13:50;7.90;99.90
3186;DHT22;1604;53.700;10.252;2023-12-28T05:16:55;7.90;99.90
3186;DHT22;1604;53.700;10.252;2023-12-28T05:19:57;7.90;99.90
3186;DHT22;1604;53.700;10.252;2023-12-28T05:22:59;7.90;99.90
3186;DHT22;1604;53.700;10.252;2023-12-28T05:26:01;7.90;99.90
3186;DHT22;1604;53.700;10.252;2023-12-28T05:29:04;7.90;99.90
3186;DHT22;1604;53.700;10.252;2023-12-28T05:32:06;7.90;99.90
3186;DHT22;1604;53.700;10.252;2023-12-28T05:35:09;7.90;99.90
3186;DHT22;1604;53.700;10.252;2023-12-28T05:38:11;7.90;99.90
3186;DHT22;1604;53.700;10.252;2023-12-28T05:41:13;7.90;99.90
3186;DHT22;1604;53.700;10.252;2023-12-28T05:44:17;7.90;99.90
3186;DHT22;1604;53.700;10.252;2023-12-28T05:47:18;7.90;99.90
3186;DHT22;1604;53.700;10.252;2023-12-28T05:50:20;7.80;99.90
3186;DHT22;1604;53.700;10.252;2023-12-28T05:53:23;7.90;99.90
3186;DHT22;1604;53.700;10.252;2023-12-28T05:56:24;7.90;99.90
3186;DHT22;1604;53.700;10.252;2023-12-28T05:59:28;7.90;99.90
3186;DHT22;1604;53.700;10.252;2023-12-28T06:02:30;7.90;99.90
3186;DHT22;1604;53.700;10.252;2023-12-28T06:05:32;7.90;99.90
3186;DHT22;1604;53.700;10.252;2023-12-28T06:08:34;8.00;99.90
3186;DHT22;1604;53.700;10.252;2023-12-28T06:11:36;8.00;99.90
3186;DHT22;1604;53.700;10.252;2023-12-28T06:14:39;8.00;99.90
3186;DHT22;1604;53.700;10.252;2023-12-28T06:17:42;8.10;99.90
3186;DHT22;1604;53.700;10.252;2023-12-28T06:20:44;8.10;99.90
3186;DHT22;1604;53.700;10.252;2023-12-28T06:23:46;8.10;99.90
3186;DHT22;1604;53.700;10.252;2023-12-28T06:26:48;8.20;99.90
3186;DHT22;1604;53.700;10.252;2023-12-28T06:29:52;8.20;99.90
3186;DHT22;1604;53.700;10.252;2023-12-28T06:32:54;8.30;99.90
3186;DHT22;1604;53.700;10.252;2023-12-28T06:35:56;8.30;99.90
3186;DHT22;1604;53.700;10.252;2023-12-28T06:38:59;8.40;99.90
3186;DHT22;1604;53.700;10.252;2023-12-28T06:42:02;8.50;99.90
3186;DHT22;1604;53.700;10.252;2023-12-28T06:45:06;8.50;99.90
3186;DHT22;1604;53.700;10.252;2023-12-28T06:48:08;8.50;99.90
3186;DHT22;1604;53.700;10.252;2023-12-28T06:51:15;8.60;99.90
3186;DHT22;1604;53.700;10.252;2023-12-28T06:54:18;8.70;99.90
3186;DHT22;1604;53.700;10.252;2023-12-28T06:57:19;8.80;99.90
3186;DHT22;1604;53.700;10.252;2023-12-28T07:00:23;8.80;99.90
3186;DHT22;1604;53.700;10.252;2023-12-28T07:03:25;8.90;99.90
3186;DHT22;1604;53.700;10.252;2023-12-28T07:06:30;9.00;99.90
3186;DHT22;1604;53.700;10.252;2023-12-28T07:09:32;9.00;99.90
3186;DHT22;1604;53.700;10.252;2023-12-28T07:12:34;9.00;99.90
3186;DHT22;1604;53.700;10.252;2023-12-28T07:15:38;9.00;99.90
3186;DHT22;1604;53.700;10.252;2023-12-28T07:18:40;9.10;99.90
3186;DHT22;1604;53.700;10.252;2023-12-28T07:21:42;9.10;99.90
3186;DHT22;1604;53.700;10.252;2023-12-28T07:24:44;9.10;99.90
3186;DHT22;1604;53.700;10.252;2023-12-28T07:27:46;9.10;99.90
3186;DHT22;1604;53.700;10.252;2023-12-28T07:30:49;9.00;99.90
3186;DHT22;1604;53.700;10.252;2023-12-28T07:33:51;9.00;99.90
3186;DHT22;1604;53.700;10.252;2023-12-28T07:36:54;9.00;99.90
3186;DHT22;1604;53.700;10.252;2023-12-28T07:39:56;9.10;99.90
3186;DHT22;1604;53.700;10.252;2023-12-28T07:42:58;9.20;99.90
3186;DHT22;1604;53.700;10.252;2023-12-28T07:46:03;9.20;99.90
3186;DHT22;1604;53.700;10.252;2023-12-28T07:49:05;9.20;99.90
3186;DHT22;1604;53.700;10.252;2023-12-28T07:52:07;9.20;99.90
3186;DHT22;1604;53.700;10.252;2023-12-28T07:55:09;9.20;99.90
3186;DHT22;1604;53.700;10.252;2023-12-28T07:58:11;9.30;99.90
3186;DHT22;1604;53.700;10.252;2023-12-28T08:01:14;9.30;99.90
3186;DHT22;1604;53.700;10.252;2023-12-28T08:04:16;9.30;99.90
3186;DHT22;1604;53.700;10.252;2023-12-28T08:07:18;9.30;99.90
3186;DHT22;1604;53.700;10.252;2023-12-28T08:10:20;9.30;99.90
3186;DHT22;1604;53.700;10.252;2023-12-28T08:13:22;9.30;99.90
3186;DHT22;1604;53.700;10.252;2023-12-28T08:16:26;9.30;99.90
3186;DHT22;1604;53.700;10.252;2023-12-28T08:19:27;9.30;99.90
3186;DHT22;1604;53.700;10.252;2023-12-28T08:22:29;9.30;99.90
3186;DHT22;1604;53.700;10.252;2023-12-28T08:25:31;9.30;99.90
3186;DHT22;1604;53.700;10.252;2023-12-28T08:28:33;9.30;99.90
3186;DHT22;1604;53.700;10.252;2023-12-28T08:31:37;9.30;99.90
3186;DHT22;1604;53.700;10.252;2023-12-28T08:34:39;9.40;99.90
3186;DHT22;1604;53.700;10.252;2023-12-28T08:37:41;9.50;99.90
3186;DHT22;1604;53.700;10.252;2023-12-28T08:40:43;9.50;99.90
3186;DHT22;1604;53.700;10.252;2023-12-28T08:43:45;9.60;99.90
3186;DHT22;1604;53.700;10.252;2023-12-28T08:46:49;9.60;99.90
3186;DHT22;1604;53.700;10.252;2023-12-28T08:49:51;9.60;99.90
3186;DHT22;1604;53.700;10.252;2023-12-28T08:52:53;9.70;99.90
3186;DHT22;1604;53.700;10.252;2023-12-28T08:55:55;9.80;99.90
3186;DHT22;1604;53.700;10.252;2023-12-28T08:58:57;9.80;99.90
3186;DHT22;1604;53.700;10.252;2023-12-28T09:02:00;9.90;99.90
3186;DHT22;1604;53.700;10.252;2023-12-28T09:05:03;9.90;99.90
3186;DHT22;1604;53.700;10.252;2023-12-28T09:08:05;10.00;99.90
3186;DHT22;1604;53.700;10.252;2023-12-28T09:11:10;10.00;99.90
3186;DHT22;1604;53.700;10.252;2023-12-28T09:14:12;10.00;99.90
3186;DHT22;1604;53.700;10.252;2023-12-28T09:17:16;10.00;99.90
3186;DHT22;1604;53.700;10.252;2023-12-28T09:20:18;10.00;99.90
3186;DHT22;1604;53.700;10.252;2023-12-28T09:23:20;10.00;99.90
3186;DHT22;1604;53.700;10.252;2023-12-28T09:26:22;10.10;99.90
3186;DHT22;1604;53.700;10.252;2023-12-28T09:29:24;10.20;99.90
3186;DHT22;1604;53.700;10.252;2023-12-28T09:32:28;10.20;99.90
3186;DHT22;1604;53.700;10.252;2023-12-28T09:35:30;10.20;99.90
3186;DHT22;1604;53.700;10.252;2023-12-28T09:38:32;10.30;99.90
3186;DHT22;1604;53.700;10.252;2023-12-28T09:41:39;10.30;99.90
3186;DHT22;1604;53.700;10.252;2023-12-28T09:44:43;10.40;99.90
3186;DHT22;1604;53.700;10.252;2023-12-28T09:47:46;10.40;99.90
3186;DHT22;1604;53.700;10.252;2023-12-28T09:50:52;10.40;99.90
3186;DHT22;1604;53.700;10.252;2023-12-28T09:53:56;10.50;99.90
3186;DHT22;1604;53.700;10.252;2023-12-28T09:56:58;10.50;99.90
3186;DHT22;1604;53.700;10.252;2023-12-28T10:00:00;10.50;99.90
3186;DHT22;1604;53.700;10.252;2023-12-28T10:03:06;10.50;99.90
3186;DHT22;1604;53.700;10.252;2023-12-28T10:06:08;10.50;99.90
3186;DHT22;1604;53.700;10.252;2023-12-28T10:09:10;10.60;99.90
3186;DHT22;1604;53.700;10.252;2023-12-28T10:12:12;10.60;99.90
3186;DHT22;1604;53.700;10.252;2023-12-28T10:15:14;10.70;99.90
3186;DHT22;1604;53.700;10.252;2023-12-28T10:18:18;10.60;99.90
3186;DHT22;1604;53.700;10.252;2023-12-28T10:21:21;10.70;99.90
3186;DHT22;1604;53.700;10.252;2023-12-28T10:24:24;10.70;99.90
3186;DHT22;1604;53.700;10.252;2023-12-28T10:27:26;10.70;99.90
3186;DHT22;1604;53.700;10.252;2023-12-28T10:30:29;10.70;99.90
3186;DHT22;1604;53.700;10.252;2023-12-28T10:33:35;10.70;99.90
3186;DHT22;1604;53.700;10.252;2023-12-28T10:36:38;10.80;99.90
3186;DHT22;1604;53.700;10.252;2023-12-28T10:39:45;10.80;99.90
3186;DHT22;1604;53.700;10.252;2023-12-28T10:42:52;10.80;99.90
3186;DHT22;1604;53.700;10.252;2023-12-28T10:45:57;10.80;99.90
3186;DHT22;1604;53.700;10.252;2023-12-28T10:49:05;10.80;99.90
3186;DHT22;1604;53.700;10.252;2023-12-28T10:52:12;10.80;99.90
3186;DHT22;1604;53.700;10.252;2023-12-28T10:55:24;10.80;99.90
3186;DHT22;1604;53.700;10.252;2023-12-28T10:58:37;10.80;99.90
3186;DHT22;1604;53.700;10.252;2023-12-28T11:01:42;10.80;99.90
3186;DHT22;1604;53.700;10.252;2023-12-28T11:04:50;10.80;99.90
3186;DHT22;1604;53.700;10.252;2023-12-28T11:07:54;10.90;99.90
3186;DHT22;1604;53.700;10.252;2023-12-28T11:10:59;10.90;99.90
3186;DHT22;1604;53.700;10.252;2023-12-28T11:14:02;10.90;99.90
3186;DHT22;1604;53.700;10.252;2023-12-28T11:17:05;11.00;99.90
3186;DHT22;1604;53.700;10.252;2023-12-28T11:20:09;11.00;99.90
3186;DHT22;1604;53.700;10.252;2023-12-28T11:23:12;11.00;99.90
3186;DHT22;1604;53.700;10.252;2023-12-28T11:26:17;11.00;99.90
3186;DHT22;1604;53.700;10.252;2023-12-28T11:29:21;11.00;99.90
3186;DHT22;1604;53.700;10.252;2023-12-28T11:32:24;11.00;99.90
3186;DHT22;1604;53.700;10.252;2023-12-28T11:35:34;11.00;99.90
3186;DHT22;1604;53.700;10.252;2023-12-28T11:38:38;11.10;99.90
3186;DHT22;1604;53.700;10.252;2023-12-28T11:41:42;11.10;99.90
3186;DHT22;1604;53.700;10.252;2023-12-28T11:44:44;11.10;99.90
3186;DHT22;1604;53.700;10.252;2023-12-28T11:47:58;11.00;99.90
3186;DHT22;1604;53.700;10.252;2023-12-28T11:51:01;11.00;99.90
3186;DHT22;1604;53.700;10.252;2023-12-28T11:54:03;11.00;99.90
3186;DHT22;1604;53.700;10.252;2023-12-28T11:57:05;11.00;99.90
3186;DHT22;1604;53.700;10.252;2023-12-28T12:00:08;11.00;99.90
3186;DHT22;1604;53.700;10.252;2023-12-28T12:03:11;11.00;99.90
3186;DHT22;1604;53.700;10.252;2023-12-28T12:06:15;11.00;99.90
3186;DHT22;1604;53.700;10.252;2023-12-28T12:09:17;11.00;99.90
3186;DHT22;1604;53.700;10.252;2023-12-28T12:12:23;11.00;99.90
3186;DHT22;1604;53.700;10.252;2023-12-28T12:15:25;11.00;99.90
3186;DHT22;1604;53.700;10.252;2023-12-28T12:18:29;11.00;99.90
3186;DHT22;1604;53.700;10.252;2023-12-28T12:21:35;11.10;99.90
3186;DHT22;1604;53.700;10.252;2023-12-28T12:24:41;11.00;99.90
3186;DHT22;1604;53.700;10.252;2023-12-28T12:27:45;11.00;99.90
3186;DHT22;1604;53.700;10.252;2023-12-28T12:30:52;11.00;99.90
3186;DHT22;1604;53.700;10.252;2023-12-28T12:33:55;11.10;99.90
3186;DHT22;1604;53.700;10.252;2023-12-28T12:36:59;11.00;99.90
3186;DHT22;1604;53.700;10.252;2023-12-28T12:40:01;11.00;99.90
3186;DHT22;1604;53.700;10.252;2023-12-28T12:43:04;11.10;99.90
3186;DHT22;1604;53.700;10.252;2023-12-28T12:46:06;11.10;99.90
3186;DHT22;1604;53.700;10.252;2023-12-28T12:49:08;11.10;99.90
3186;DHT22;1604;53.700;10.252;2023-12-28T12:52:12;11.10;99.90
3186;DHT22;1604;53.700;10.252;2023-12-28T12:55:14;11.00;99.90
3186;DHT22;1604;53.700;10.252;2023-12-28T12:58:16;11.00;99.90
3186;DHT22;1604;53.700;10.252;2023-12-28T13:01:18;11.00;99.90
3186;DHT22;1604;53.700;10.252;2023-12-28T13:04:21;11.00;99.90
3186;DHT22;1604;53.700;10.252;2023-12-28T13:07:24;11.10;99.90
3186;DHT22;1604;53.700;10.252;2023-12-28T13:10:26;11.10;99.90
3186;DHT22;1604;53.700;10.252;2023-12-28T13:13:28;11.10;99.90
3186;DHT22;1604;53.700;10.252;2023-12-28T13:16:30;11.10;99.90
3186;DHT22;1604;53.700;10.252;2023-12-28T13:19:32;11.10;99.90
3186;DHT22;1604;53.700;10.252;2023-12-28T13:22:35;11.00;99.90
3186;DHT22;1604;53.700;10.252;2023-12-28T13:25:37;11.00;99.90
3186;DHT22;1604;53.700;10.252;2023-12-28T13:28:39;10.90;99.90
3186;DHT22;1604;53.700;10.252;2023-12-28T13:31:43;10.90;99.90
3186;DHT22;1604;53.700;10.252;2023-12-28T13:34:48;10.90;99.90
3186;DHT22;1604;53.700;10.252;2023-12-28T13:37:52;10.90;99.90
3186;DHT22;1604;53.700;10.252;2023-12-28T13:40:55;10.90;99.90
3186;DHT22;1604;53.700;10.252;2023-12-28T13:43:57;10.90;99.90
3186;DHT22;1604;53.700;10.252;2023-12-28T13:47:05;10.90;99.90
3186;DHT22;1604;53.700;10.252;2023-12-28T13:50:08;10.90;99.90
3186;DHT22;1604;53.700;10.252;2023-12-28T13:53:12;11.00;99.90
3186;DHT22;1604;53.700;10.252;2023-12-28T13:56:15;11.00;99.90
3186;DHT22;1604;53.700;10.252;2023-12-28T13:59:17;11.00;99.90
3186;DHT22;1604;53.700;10.252;2023-12-28T14:02:19;10.90;99.90
3186;DHT22;1604;53.700;10.252;2023-12-28T14:05:22;11.00;99.90
3186;DHT22;1604;53.700;10.252;2023-12-28T14:08:26;11.00;99.90
3186;DHT22;1604;53.700;10.252;2023-12-28T14:11:28;11.00;99.90
3186;DHT22;1604;53.700;10.252;2023-12-28T14:14:30;11.00;99.90
3186;DHT22;1604;53.700;10.252;2023-12-28T14:17:32;11.00;99.90
3186;DHT22;1604;53.700;10.252;2023-12-28T14:20:35;10.90;99.90
3186;DHT22;1604;53.700;10.252;2023-12-28T14:23:39;10.90;99.90
3186;DHT22;1604;53.700;10.252;2023-12-28T14:26:41;10.90;99.90
3186;DHT22;1604;53.700;10.252;2023-12-28T14:29:44;10.90;99.90
3186;DHT22;1604;53.700;10.252;2023-12-28T14:32:47;10.80;99.90
3186;DHT22;1604;53.700;10.252;2023-12-28T14:35:49;10.70;99.90
3186;DHT22;1604;53.700;10.252;2023-12-28T14:38:53;10.60;99.90
3186;DHT22;1604;53.700;10.252;2023-12-28T14:41:56;10.50;99.90
3186;DHT22;1604;53.700;10.252;2023-12-28T14:44:58;10.50;99.90
3186;DHT22;1604;53.700;10.252;2023-12-28T14:48:02;10.40;99.90
3186;DHT22;1604;53.700;10.252;2023-12-28T14:51:04;10.40;99.90
3186;DHT22;1604;53.700;10.252;2023-12-28T14:54:07;10.40;99.90
3186;DHT22;1604;53.700;10.252;2023-12-28T14:57:09;10.40;99.90
3186;DHT22;1604;53.700;10.252;2023-12-28T15:00:13;10.40;99.90
3186;DHT22;1604;53.700;10.252;2023-12-28T15:03:16;10.40;99.90
3186;DHT22;1604;53.700;10.252;2023-12-28T15:06:18;10.40;99.90
3186;DHT22;1604;53.700;10.252;2023-12-28T15:09:21;10.40;99.90
3186;DHT22;1604;53.700;10.252;2023-12-28T15:12:23;10.50;99.90
3186;DHT22;1604;53.700;10.252;2023-12-28T15:15:26;10.50;99.90
3186;DHT22;1604;53.700;10.252;2023-12-28T15:18:29;10.50;99.90
3186;DHT22;1604;53.700;10.252;2023-12-28T15:21:31;10.50;99.90
3186;DHT22;1604;53.700;10.252;2023-12-28T15:24:37;10.50;99.90
3186;DHT22;1604;53.700;10.252;2023-12-28T15:27:40;10.60;99.90
3186;DHT22;1604;53.700;10.252;2023-12-28T15:30:42;10.60;99.90
3186;DHT22;1604;53.700;10.252;2023-12-28T15:33:44;10.50;99.90
3186;DHT22;1604;53.700;10.252;2023-12-28T15:36:46;10.50;99.90
3186;DHT22;1604;53.700;10.252;2023-12-28T15:39:49;10.50;99.90
3186;DHT22;1604;53.700;10.252;2023-12-28T15:42:51;10.50;99.90
3186;DHT22;1604;53.700;10.252;2023-12-28T15:45:54;10.50;99.90
3186;DHT22;1604;53.700;10.252;2023-12-28T15:48:56;10.50;99.90
3186;DHT22;1604;53.700;10.252;2023-12-28T15:51:58;10.50;99.90
3186;DHT22;1604;53.700;10.252;2023-12-28T15:55:02;10.50;99.90
3186;DHT22;1604;53.700;10.252;2023-12-28T15:58:04;10.60;99.90
3186;DHT22;1604;53.700;10.252;2023-12-28T16:01:06;10.60;99.90
3186;DHT22;1604;53.700;10.252;2023-12-28T16:04:08;10.60;99.90
3186;DHT22;1604;53.700;10.252;2023-12-28T16:07:10;10.50;99.90
3186;DHT22;1604;53.700;10.252;2023-12-28T16:10:13;10.50;99.90
3186;DHT22;1604;53.700;10.252;2023-12-28T16:13:15;10.60;99.90
3186;DHT22;1604;53.700;10.252;2023-12-28T16:16:19;10.50;99.90
3186;DHT22;1604;53.700;10.252;2023-12-28T16:19:21;10.60;99.90
3186;DHT22;1604;53.700;10.252;2023-12-28T16:22:24;10.50;99.90
3186;DHT22;1604;53.700;10.252;2023-12-28T16:25:27;10.50;99.90
3186;DHT22;1604;53.700;10.252;2023-12-28T16:28:29;10.50;99.90
3186;DHT22;1604;53.700;10.252;2023-12-28T16:31:32;10.50;99.90
3186;DHT22;1604;53.700;10.252;2023-12-28T16:34:34;10.50;99.90
3186;DHT22;1604;53.700;10.252;2023-12-28T16:37:36;10.50;99.90
3186;DHT22;1604;53.700;10.252;2023-12-28T16:40:40;10.50;99.90
3186;DHT22;1604;53.700;10.252;2023-12-28T16:43:42;10.50;99.90
3186;DHT22;1604;53.700;10.252;2023-12-28T16:46:45;10.50;99.90
3186;DHT22;1604;53.700;10.252;2023-12-28T16:49:47;10.50;99.90
3186;DHT22;1604;53.700;10.252;2023-12-28T16:52:49;10.50;99.90
3186;DHT22;1604;53.700;10.252;2023-12-28T16:55:53;10.50;99.90
3186;DHT22;1604;53.700;10.252;2023-12-28T16:58:55;10.60;99.90
3186;DHT22;1604;53.700;10.252;2023-12-28T17:01:57;10.50;99.90
3186;DHT22;1604;53.700;10.252;2023-12-28T17:04:59;10.50;99.90
3186;DHT22;1604;53.700;10.252;2023-12-28T17:08:02;10.50;99.90
3186;DHT22;1604;53.700;10.252;2023-12-28T17:11:06;10.50;99.90
3186;DHT22;1604;53.700;10.252;2023-12-28T17:14:09;10.50;99.90
3186;DHT22;1604;53.700;10.252;2023-12-28T17:17:11;10.50;99.90
3186;DHT22;1604;53.700;10.252;2023-12-28T17:20:14;10.50;99.90
3186;DHT22;1604;53.700;10.252;2023-12-28T17:23:22;10.50;99.90
3186;DHT22;1604;53.700;10.252;2023-12-28T17:26:28;10.50;99.90
3186;DHT22;1604;53.700;10.252;2023-12-28T17:29:34;10.40;99.90
3186;DHT22;1604;53.700;10.252;2023-12-28T17:32:39;10.40;99.90
3186;DHT22;1604;53.700;10.252;2023-12-28T17:35:43;10.20;99.90
3186;DHT22;1604;53.700;10.252;2023-12-28T17:38:46;10.10;99.90
3186;DHT22;1604;53.700;10.252;2023-12-28T17:41:51;10.00;99.90
3186;DHT22;1604;53.700;10.252;2023-12-28T17:44:58;9.90;99.90
3186;DHT22;1604;53.700;10.252;2023-12-28T17:48:05;9.90;99.90
3186;DHT22;1604;53.700;10.252;2023-12-28T17:51:08;9.90;99.90
3186;DHT22;1604;53.700;10.252;2023-12-28T17:54:13;9.80;99.90
3186;DHT22;1604;53.700;10.252;2023-12-28T17:57:16;9.70;99.90
3186;DHT22;1604;53.700;10.252;2023-12-28T18:00:19;9.60;99.90
3186;DHT22;1604;53.700;10.252;2023-12-28T18:03:21;9.60;99.90
3186;DHT22;1604;53.700;10.252;2023-12-28T18:06:25;9.60;99.90
3186;DHT22;1604;53.700;10.252;2023-12-28T18:09:27;9.60;99.90
3186;DHT22;1604;53.700;10.252;2023-12-28T18:12:30;9.60;99.90
3186;DHT22;1604;53.700;10.252;2023-12-28T18:15:32;9.60;99.90
3186;DHT22;1604;53.700;10.252;2023-12-28T18:18:34;9.60;99.90
3186;DHT22;1604;53.700;10.252;2023-12-28T18:21:36;9.60;99.90
3186;DHT22;1604;53.700;10.252;2023-12-28T18:24:40;9.70;99.90
3186;DHT22;1604;53.700;10.252;2023-12-28T18:27:44;9.70;99.90
3186;DHT22;1604;53.700;10.252;2023-12-28T18:30:45;9.70;99.90
3186;DHT22;1604;53.700;10.252;2023-12-28T18:33:47;9.80;99.90
3186;DHT22;1604;53.700;10.252;2023-12-28T18:36:49;9.80;99.90
3186;DHT22;1604;53.700;10.252;2023-12-28T18:39:52;9.90;99.90
3186;DHT22;1604;53.700;10.252;2023-12-28T18:42:56;9.90;99.90
3186;DHT22;1604;53.700;10.252;2023-12-28T18:45:58;9.90;99.90
3186;DHT22;1604;53.700;10.252;2023-12-28T18:48:59;9.90;99.90
3186;DHT22;1604;53.700;10.252;2023-12-28T18:52:01;10.00;99.90
3186;DHT22;1604;53.700;10.252;2023-12-28T18:55:05;10.00;99.90
3186;DHT22;1604;53.700;10.252;2023-12-28T18:58:09;10.00;99.90
3186;DHT22;1604;53.700;10.252;2023-12-28T19:01:11;10.10;99.90
3186;DHT22;1604;53.700;10.252;2023-12-28T19:04:13;10.00;99.90
3186;DHT22;1604;53.700;10.252;2023-12-28T19:07:16;10.10;99.90
3186;DHT22;1604;53.700;10.252;2023-12-28T19:10:18;10.10;99.90
3186;DHT22;1604;53.700;10.252;2023-12-28T19:13:21;10.10;99.90
3186;DHT22;1604;53.700;10.252;2023-12-28T19:16:23;10.10;99.90
3186;DHT22;1604;53.700;10.252;2023-12-28T19:19:25;10.10;99.90
3186;DHT22;1604;53.700;10.252;2023-12-28T19:22:31;10.10;99.90
3186;DHT22;1604;53.700;10.252;2023-12-28T19:25:35;10.10;99.90
3186;DHT22;1604;53.700;10.252;2023-12-28T19:28:39;10.10;99.90
3186;DHT22;1604;53.700;10.252;2023-12-28T19:31:41;10.10;99.90
3186;DHT22;1604;53.700;10.252;2023-12-28T19:34:43;10.20;99.90
3186;DHT22;1604;53.700;10.252;2023-12-28T19:37:45;10.20;99.90
3186;DHT22;1604;53.700;10.252;2023-12-28T19:40:46;10.20;99.90
3186;DHT22;1604;53.700;10.252;2023-12-28T19:43:50;10.20;99.90